Πλησιέστερες Αναφορές METAR

 

LGTS - Thessaloniki/Makedonia-Elev 7m
Distance from station: Ν 13km
Ενημερώθηκε: 07/07/2022 13:50
Few Clouds
Few Clouds
 Ανεμος από ΒΒΔ
Ανεμος: ΒΒΔ 24 km/h
Θερμοκρασία: 32°C
Σημείο Δρόσου: 15°C
Υγρασία: 36%
Βαρόμετρο: 1012 hPa
Clouds: Few Clouds
Visibility: 10 km
Cloud details: Few Clouds 914 m
2022/07/07 10:50 LGTS 071050Z 34013KT 9999 FEW030 32/15 Q1012 NOSIG
LGAV - Athens/Elef. Venizelos-Elev 94m
Distance from station: ΝΝΑ 312km
Ενημερώθηκε: 07/07/2022 13:50
Few Clouds
Few Clouds
 Ανεμος από ΒΑ
Ανεμος: ΒΑ 26 km/h
Θερμοκρασία: 31°C
Σημείο Δρόσου: 14°C
Υγρασία: 35%
Βαρόμετρο: 1013 hPa
Clouds: Few Clouds
Visibility: 10 km
Cloud details: Few Clouds 914 m
2022/07/07 10:50 LGAV 071050Z 04014KT 350V060 9999 FEW030 31/14 Q1013 NOSIG
 
LGAL - Alexandroupolis-Elev 3m
Distance from station: Α 251km
Ενημερώθηκε: 07/07/2022 13:50
Μερικώς νεφελώδης
Μερικώς νεφελώδης
 Ανεμος από ΔΝΔ
Ανεμος: ΔΝΔ 19 km/h
Θερμοκρασία: 29°C
Heat Index: 29°C
Σημείο Δρόσου: 16°C
Υγρασία: 45%
Βαρόμετρο: 1012 hPa
Clouds: Μερικώς νεφελώδης
Visibility: 10 km
Cloud details: Μερικώς νεφελώδης 914 m
2022/07/07 10:50 LGAL 071050Z 25010KT 9999 SCT030 29/16 Q1012
LGKV - Kavala/Crysoupolis-Elev 5m
Distance from station: ΑΒΑ 144km
Ενημερώθηκε: 07/07/2022 13:50
Few Clouds
Few Clouds
 Ανεμος από ΝΑ
Ανεμος: ΝΑ 11 km/h
Θερμοκρασία: 30°C
Heat Index: 31°C
Σημείο Δρόσου: 17°C
Υγρασία: 46%
Βαρόμετρο: 1012 hPa
Clouds: Few Clouds
Visibility: 10 km
Cloud details: Few Clouds 610 m
2022/07/07 10:50 LGKV 071050Z 13006KT 9999 FEW020 30/17 Q1012
 
LGSK - Skiathos Island-Elev 15m
Distance from station: ΝΝΑ 168km
Ενημερώθηκε: 07/07/2022 13:50
Few Clouds
Few Clouds
 Ανεμος από ΒΒΔ
Ανεμος: ΒΒΔ 15 km/h
Θερμοκρασία: 30°C
Heat Index: 30°C
Σημείο Δρόσου: 16°C
Υγρασία: 43%
Βαρόμετρο: 1013 hPa
Clouds: Few Clouds
Visibility: 10 km
Cloud details: Few Clouds 610 m
2022/07/07 10:50 LGSK 071050Z 34008KT 9999 FEW020 30/16 Q1013
LGLM - Limnos Island-Elev 5m
Distance from station: ΑΝΑ 210km
Ενημερώθηκε: 07/07/2022 13:50
Few Clouds
Few Clouds
 Ανεμος από ΒΒΑ
Ανεμος: ΒΒΑ 11 km/h
Θερμοκρασία: 29°C
Heat Index: 29°C
Σημείο Δρόσου: 15°C
Υγρασία: 43%
Βαρόμετρο: 1012 hPa
Clouds: Few Clouds
Visibility: 10 km
Cloud details: Few Clouds 1067 m
2022/07/07 10:50 LGLM 071050Z 02006KT 9999 FEW035 29/15 Q1012
 
LGMT - Mitilini Island-Elev 17m
Distance from station: ΑΝΑ 358km
Ενημερώθηκε: 07/07/2022 13:50
Few Clouds
Few Clouds
 Ανεμος από ΒΔ
Ανεμος: ΒΔ 22 km/h
Θερμοκρασία: 30°C
Heat Index: 30°C
Σημείο Δρόσου: 16°C
Υγρασία: 43%
Βαρόμετρο: 1011 hPa
Clouds: Few Clouds
Visibility: 10 km
Cloud details: Few Clouds 610 m
2022/07/07 10:50 LGMT 071050Z 32012KT 280V360 9999 FEW020 30/16 Q1011
LGSY - Skiros Island-Elev 15m
Distance from station: ΝΑ 227km
Ενημερώθηκε: 07/07/2022 13:50
Αίθριος
Αίθριος
 Ανεμος από ΒΔ
Ανεμος: ΒΔ 15 km/h
Θερμοκρασία: 28°C
Heat Index: 28°C
Σημείο Δρόσου: 16°C
Υγρασία: 48%
Βαρόμετρο: 1013 hPa
Συνθήκες: Αίθριος
Visibility: greater than 10 km
2022/07/07 10:50 LGSY 071050Z 31008KT CAVOK 28/16 Q1013 BLU
 
LGKZ - Kozani-Elev 628m
Distance from station: ΔΝΔ 102km
Ενημερώθηκε: 07/07/2022 13:50
Few Clouds
Few Clouds
 Ανεμος από ΒΔ
Ανεμος: ΒΔ 17 km/h
Θερμοκρασία: 27°C
Σημείο Δρόσου: 8°C
Υγρασία: 30%
Βαρόμετρο: 1017 hPa
Clouds: Few Clouds
Visibility: 10 km
Cloud details: Few Clouds 762 m
2022/07/07 10:50 LGKZ 071050Z 31009KT 9999 FEW025 27/08 Q1017
LGIO - Ioannina-Elev 476m
Distance from station: ΔΝΔ 209km
Ενημερώθηκε: 07/07/2022 13:50
Few Clouds
Few Clouds
 Ανεμος από ΒΔ
Ανεμος: ΒΔ 13 km/h
Θερμοκρασία: 32°C
Σημείο Δρόσου: 12°C
Υγρασία: 29%
Βαρόμετρο: 1015 hPa
Clouds: Few Clouds
Visibility: 10 km
Cloud details: Few Clouds 1067 m
2022/07/07 10:50 LGIO 071050Z 32007KT 240V020 9999 FEW035 32/12 Q1015
 
LGZA - Zakinthos-Elev 3m
Distance from station: ΝΝΔ 367km
Ενημερώθηκε: 07/07/2022 13:50
Few Clouds
Few Clouds
 Ανεμος από Ν
Ανεμος: Ν 11 km/h
Θερμοκρασία: 33°C
Heat Index: 35°C
Σημείο Δρόσου: 20°C
Υγρασία: 46%
Βαρόμετρο: 1013 hPa
Clouds: Few Clouds
Visibility: 10 km
Cloud details: Few Clouds 762 m
2022/07/07 10:50 LGZA 071050Z 17006KT 9999 FEW025 33/20 Q1013
LGKR - Corfu Island-Elev 2m
Distance from station: ΔΝΔ 282km
Ενημερώθηκε: 07/07/2022 13:50
Few Clouds
Few Clouds
 Ανεμος από ΝΑ
Ανεμος: ΝΑ 13 km/h
Θερμοκρασία: 33°C
Heat Index: 40°C
Σημείο Δρόσου: 25°C
Υγρασία: 63%
Βαρόμετρο: 1011 hPa
Clouds: Few Clouds
Visibility: 10 km
Cloud details: Few Clouds 762 m
2022/07/07 10:50 LGKR 071050Z 13007KT 9999 FEW025 33/25 Q1011 NOSIG
 
LGSO - Syros Island-Elev 72m
Distance from station: ΝΝΑ 397km
Ενημερώθηκε: 07/07/2022 12:50
Μη Ενημερωμένο!
Αίθριος
Αίθριος
 Ανεμος από Β
Ανεμος: Β 19 km/h
Θερμοκρασία: 32°C
Σημείο Δρόσου: 13°C
Υγρασία: 31%
Βαρόμετρο: 1012 hPa
Συνθήκες: Αίθριος
Visibility: greater than 10 km
2022/07/07 09:50 LGSO 070950Z 35010KT CAVOK 32/13 Q1012
LGMK - Mikonos Island-Elev 123m
Distance from station: ΝΝΑ 412km
Ενημερώθηκε: 07/07/2022 13:50
Αίθριος
Αίθριος
 Ανεμος από varies
Ανεμος: varies 0 km/h
Θερμοκρασία: 28°C
Heat Index: 28°C
Σημείο Δρόσου: 15°C
Υγρασία: 45%
Βαρόμετρο: 1010 hPa
Συνθήκες: Αίθριος
Visibility: greater than 10 km
2022/07/07 10:50 LGMK 071050Z /////KT CAVOK 28/15 Q1010
 
LGSR - Santorini Island-Elev 40m
Distance from station: ΝΝΑ 520km
Ενημερώθηκε: 07/07/2022 13:50
Αίθριος
Αίθριος
 Ανεμος από ΒΒΔ
Ανεμος: ΒΒΔ 31 km/h
Θερμοκρασία: 29°C
Heat Index: 29°C
Σημείο Δρόσου: 18°C
Υγρασία: 51%
Βαρόμετρο: 1011 hPa
Συνθήκες: Αίθριος
Visibility: greater than 10 km
2022/07/07 10:50 LGSR 071050Z 34017KT CAVOK 29/18 Q1011
LGKL - Kalamata-Elev 8m
Distance from station: Ν 405km
Ενημερώθηκε: 07/07/2022 13:50
Few Clouds
Few Clouds
 Ανεμος από ΝΝΑ
Ανεμος: ΝΝΑ 19 km/h
Θερμοκρασία: 31°C
Heat Index: 35°C
Σημείο Δρόσου: 22°C
Υγρασία: 59%
Βαρόμετρο: 1012 hPa
Clouds: Few Clouds
Visibility: 10 km
Cloud details: Few Clouds 762 m
2022/07/07 10:50 LGKL 071050Z 15010KT 9999 FEW025 31/22 Q1012
 
LGIR - Iraklion/Crete-Elev 5m
Distance from station: ΝΝΑ 622km
Ενημερώθηκε: 07/07/2022 13:50
Αίθριος
Αίθριος
 Ανεμος από ΔΒΔ
Ανεμος: ΔΒΔ 28 km/h
Θερμοκρασία: 30°C
Heat Index: 30°C
Σημείο Δρόσου: 16°C
Υγρασία: 43%
Βαρόμετρο: 1012 hPa
Συνθήκες: Αίθριος
Visibility: greater than 10 km
2022/07/07 10:50 LGIR 071050Z 29015KT CAVOK 30/16 Q1012 NOSIG
LGRP - Rhodes-Elev 5m
Distance from station: ΝΑ 649km
Ενημερώθηκε: 07/07/2022 13:50
Αίθριος
Αίθριος
 Ανεμος από ΔΝΔ
Ανεμος: ΔΝΔ 26 km/h
Θερμοκρασία: 30°C
Heat Index: 31°C
Σημείο Δρόσου: 19°C
Υγρασία: 52%
Βαρόμετρο: 1005 hPa
Συνθήκες: Αίθριος
Visibility: greater than 10 km
2022/07/07 10:50 LGRP 071050Z 25014KT CAVOK 30/19 Q1005 NOSIG
 
LWOH - Ohrid/FYROM-Elev 761m
Distance from station: ΔΒΔ 188km
Ενημερώθηκε: 07/07/2022 14:00
Few Clouds
Few Clouds
 Ανεμος από ΝΝΑ
Ανεμος: ΝΝΑ 9 km/h
Θερμοκρασία: 25°C
Σημείο Δρόσου: 10°C
Υγρασία: 39%
Βαρόμετρο: 1017 hPa
Clouds: Few Clouds
Visibility: 10 km
Cloud details: Few Clouds 1524 m
2022/07/07 11:00 LWOH 071100Z 16005KT 9999 FEW050 25/10 Q1017
LBSF - Sofia/Bulgaria-Elev 595m
Distance from station: Β 227km
Ενημερώθηκε: 07/07/2022 14:00
Μερικώς νεφελώδης
Μερικώς νεφελώδης
 Ανεμος από ΔΒΔ
Ανεμος: ΔΒΔ 13 km/h
Θερμοκρασία: 26°C
Σημείο Δρόσου: 13°C
Υγρασία: 45%
Βαρόμετρο: 1016 hPa
Clouds: Μερικώς νεφελώδης
Visibility: 10 km
Cloud details: Μερικώς νεφελώδης 1524 m
2022/07/07 11:00 LBSF 071100Z 29007KT 240V360 9999 SCT050 26/13 Q1016 NOSIG
Σημερινά ρεκόρ Μετεωρολογικού Σταθμού
Η Ελάχιστη Θερμοκρασία των 17.4°C ξεπέρασε τη Ελάχιστη Μηνιαία τιμή των 17.6°C που σημειώθηκε στις 06/07/2022 κατά -0.2°
Η μέγιστη μέση ταχύτητα ανέμου των 20.93 km/h ξεπέρασε τη Μέγιστη Μηνιαία τιμή των 9.82 km/h που σημειώθηκε στις 06/07/2022 κατά 11.11 km/h
Η Μέγιστη τιμή Βαρόμετρου των 909.0 hPa ξεπέρασε τη Μέγιστη Μηνιαία τιμή των 908.0 hPa που σημειώθηκε στις 06/07/2022 κατά 1 hPa
Η ελάχιστη τιμή Αίσθησης Ψύχρας των 17.4°C ξεπέρασε τη Ελάχιστη Μηνιαία τιμή των 17.6°C που σημειώθηκε στις 06/07/2022 κατά -0.2°
Η Ελάχιστη τιμή Σημείου Δρόσου των -9.7°C ξεπέρασε τη Ελάχιστη Μηνιαία τιμή των -9.3°C που σημειώθηκε στις 06/07/2022 κατά -0.4°